createdAt,value
2022-10-01T00:01:14.233Z,3.88
2022-10-01T00:03:41.252Z,3.85
2022-10-01T00:06:17.562Z,3.60
2022-10-01T00:08:49.234Z,3.60
2022-10-01T00:11:22.369Z,3.72
2022-10-01T00:13:50.154Z,3.55
2022-10-01T00:16:20.313Z,3.85
2022-10-01T00:18:48.006Z,3.70
2022-10-01T00:21:18.843Z,3.50
2022-10-01T00:23:46.087Z,3.30
2022-10-01T00:26:21.851Z,3.10
2022-10-01T00:28:53.621Z,3.22
2022-10-01T00:31:20.479Z,3.55
2022-10-01T00:33:47.515Z,3.72
2022-10-01T00:36:14.549Z,3.08
2022-10-01T00:38:41.551Z,3.00
2022-10-01T00:41:10.017Z,3.40
2022-10-01T00:43:42.351Z,3.65
2022-10-01T00:46:28.678Z,3.47
2022-10-01T00:49:02.792Z,3.40
2022-10-01T00:51:34.946Z,3.60
2022-10-01T00:54:08.701Z,3.35
2022-10-01T00:56:35.952Z,3.47
2022-10-01T00:59:02.797Z,3.30
2022-10-01T01:01:29.536Z,3.90
2022-10-01T01:03:57.489Z,4.60
2022-10-01T01:06:24.150Z,4.40
2022-10-01T01:08:55.043Z,4.28
2022-10-01T01:11:38.534Z,3.60
2022-10-01T01:14:19.938Z,3.45
2022-10-01T01:16:52.345Z,3.80
2022-10-01T01:19:50.082Z,3.35
2022-10-01T01:22:21.173Z,3.38
2022-10-01T01:25:25.211Z,2.92
2022-10-01T01:28:31.729Z,3.05
2022-10-01T01:31:02.350Z,3.40
2022-10-01T01:33:32.311Z,3.17
2022-10-01T01:36:06.874Z,3.45
2022-10-01T01:38:40.261Z,3.08
2022-10-01T01:41:09.069Z,3.30
2022-10-01T01:43:41.243Z,3.65
2022-10-01T01:46:10.867Z,3.42
2022-10-01T01:48:41.136Z,3.47
2022-10-01T01:51:31.433Z,3.80
2022-10-01T01:53:58.697Z,3.55
2022-10-01T01:56:25.933Z,3.83
2022-10-01T01:58:53.949Z,3.85
2022-10-01T02:01:40.878Z,4.03
2022-10-01T02:04:16.027Z,4.25
2022-10-01T02:07:01.457Z,3.97
2022-10-01T02:09:51.001Z,3.95
2022-10-01T02:12:47.909Z,4.30
2022-10-01T02:15:38.846Z,3.95
2022-10-01T02:18:11.612Z,4.00
2022-10-01T02:20:47.829Z,4.22
2022-10-01T02:23:28.080Z,4.38
2022-10-01T02:26:03.843Z,4.72
2022-10-01T02:28:33.568Z,4.40
2022-10-01T02:31:02.342Z,4.70
2022-10-01T02:33:35.506Z,4.40
2022-10-01T02:36:05.983Z,4.60
2022-10-01T02:38:36.065Z,4.38
2022-10-01T02:41:07.202Z,4.13
2022-10-01T02:43:51.383Z,4.63
2022-10-01T02:46:32.479Z,5.10
2022-10-01T02:49:01.150Z,4.25
2022-10-01T02:51:43.238Z,4.75
2022-10-01T02:54:45.332Z,5.05
2022-10-01T02:57:22.924Z,5.20
2022-10-01T02:59:54.878Z,5.55
2022-10-01T03:02:22.555Z,5.70
2022-10-01T03:04:49.250Z,5.75
2022-10-01T03:07:16.675Z,5.40
2022-10-01T03:09:43.249Z,5.72
2022-10-01T03:12:10.705Z,5.88
2022-10-01T03:14:39.279Z,5.53
2022-10-01T03:17:08.727Z,5.60
2022-10-01T03:19:35.344Z,5.78
2022-10-01T03:22:02.430Z,5.60
2022-10-01T03:24:29.103Z,5.82
2022-10-01T03:26:57.057Z,5.63
2022-10-01T03:29:24.857Z,5.82
2022-10-01T03:31:51.849Z,5.60
2022-10-01T03:34:18.990Z,5.75
2022-10-01T03:36:45.977Z,6.30
2022-10-01T03:39:13.395Z,5.70
2022-10-01T03:41:40.117Z,5.72
2022-10-01T03:44:06.829Z,5.97
2022-10-01T03:46:33.638Z,5.32
2022-10-01T03:49:01.025Z,5.78
2022-10-01T03:51:28.624Z,5.60
2022-10-01T03:53:56.676Z,5.75
2022-10-01T03:56:23.989Z,6.15
2022-10-01T03:58:51.058Z,4.95
2022-10-01T04:01:18.086Z,5.47
2022-10-01T04:03:44.827Z,5.53
2022-10-01T04:06:12.159Z,5.97
2022-10-01T04:08:39.312Z,4.95
2022-10-01T04:11:07.160Z,5.68
2022-10-01T04:13:34.593Z,5.57
2022-10-01T04:16:02.862Z,4.95
2022-10-01T04:18:29.904Z,5.43
2022-10-01T04:20:57.781Z,5.50
2022-10-01T04:23:25.266Z,5.60
2022-10-01T04:25:51.986Z,5.55
2022-10-01T04:28:18.865Z,4.70
2022-10-01T04:30:46.396Z,5.72
2022-10-01T04:33:15.693Z,5.30
2022-10-01T04:35:43.451Z,5.03
2022-10-01T04:38:16.385Z,5.90
2022-10-01T04:40:43.238Z,4.28
2022-10-01T04:43:11.560Z,4.70
2022-10-01T04:45:38.432Z,4.60
2022-10-01T04:48:05.376Z,4.85
2022-10-01T04:50:32.473Z,4.57
2022-10-01T04:52:59.052Z,4.47
2022-10-01T04:55:25.635Z,4.93
2022-10-01T04:57:52.233Z,4.65
2022-10-01T05:00:21.911Z,4.47
2022-10-01T05:02:50.241Z,4.10
2022-10-01T05:05:18.871Z,4.95
2022-10-01T05:07:45.712Z,4.30
2022-10-01T05:10:21.273Z,5.25
2022-10-01T05:12:48.687Z,4.43
2022-10-01T05:15:16.558Z,3.88
2022-10-01T05:17:43.350Z,3.90
2022-10-01T05:20:16.772Z,3.65
2022-10-01T05:22:44.668Z,3.67
2022-10-01T05:25:11.330Z,4.43
2022-10-01T05:27:38.799Z,3.88
2022-10-01T05:30:06.210Z,3.78
2022-10-01T05:32:32.793Z,4.28
2022-10-01T05:34:59.404Z,3.65
2022-10-01T05:37:26.018Z,3.65
2022-10-01T05:39:52.609Z,3.45
2022-10-01T05:42:19.215Z,3.42
2022-10-01T05:44:49.982Z,3.15
2022-10-01T05:47:17.174Z,3.15
2022-10-01T05:49:44.429Z,3.05
2022-10-01T05:52:11.916Z,2.95
2022-10-01T05:54:42.713Z,3.00
2022-10-01T05:57:09.443Z,3.17
2022-10-01T05:59:36.284Z,4.05
2022-10-01T06:02:04.593Z,3.47
2022-10-01T06:04:31.417Z,3.28
2022-10-01T06:06:58.237Z,3.65
2022-10-01T06:09:25.246Z,3.00
2022-10-01T06:11:52.003Z,3.22
2022-10-01T06:14:18.888Z,3.10
2022-10-01T06:16:46.844Z,3.33
2022-10-01T06:19:13.567Z,3.45
2022-10-01T06:21:40.202Z,3.80
2022-10-01T06:24:06.869Z,3.75
2022-10-01T06:26:33.423Z,3.95
2022-10-01T06:28:59.993Z,4.15
2022-10-01T06:31:26.630Z,4.13
2022-10-01T06:33:53.218Z,4.30
2022-10-01T06:36:19.779Z,4.25
2022-10-01T06:38:49.458Z,3.95
2022-10-01T06:41:16.315Z,4.93
2022-10-01T06:43:42.918Z,4.70
2022-10-01T06:46:09.672Z,4.60
2022-10-01T06:48:36.601Z,4.95
2022-10-01T06:51:04.193Z,5.10
2022-10-01T06:53:31.759Z,5.28
2022-10-01T06:56:04.737Z,5.22
2022-10-01T06:58:31.509Z,4.88
2022-10-01T07:01:02.239Z,5.45
2022-10-01T07:03:29.752Z,4.97
2022-10-01T07:06:04.651Z,4.60
2022-10-01T07:08:31.365Z,4.72
2022-10-01T07:11:04.947Z,4.68
2022-10-01T07:13:31.648Z,4.78
2022-10-01T07:15:58.369Z,5.13
2022-10-01T07:18:25.009Z,4.90
2022-10-01T07:20:51.675Z,4.43
2022-10-01T07:23:18.341Z,4.57
2022-10-01T07:25:45.755Z,4.50
2022-10-01T07:28:18.534Z,4.80
2022-10-01T07:30:56.357Z,4.20
2022-10-01T07:33:22.979Z,3.97
2022-10-01T07:35:49.754Z,3.88
2022-10-01T07:38:16.635Z,3.63
2022-10-01T07:40:43.403Z,3.35
2022-10-01T07:43:10.356Z,3.50
2022-10-01T07:45:36.948Z,4.20
2022-10-01T07:48:04.355Z,3.08
2022-10-01T07:50:31.007Z,3.28
2022-10-01T07:52:59.201Z,3.30
2022-10-01T07:55:27.977Z,3.10
2022-10-01T07:57:56.709Z,3.45
2022-10-01T08:00:25.560Z,3.40
2022-10-01T08:02:56.942Z,3.40
2022-10-01T08:05:30.094Z,3.47
2022-10-01T08:08:04.290Z,3.42
2022-10-01T08:10:36.824Z,3.20
2022-10-01T08:13:15.409Z,3.80
2022-10-01T08:15:47.361Z,3.33
2022-10-01T08:18:14.358Z,3.58
2022-10-01T08:20:41.253Z,3.60
2022-10-01T08:23:14.773Z,3.42
2022-10-01T08:25:46.487Z,3.13
2022-10-01T08:28:13.811Z,3.03
2022-10-01T08:33:16.121Z,3.58
2022-10-01T08:35:43.833Z,3.70
2022-10-01T08:38:11.971Z,3.33
2022-10-01T08:40:51.005Z,3.50
2022-10-01T08:43:31.236Z,3.45
2022-10-01T08:46:04.642Z,3.70
2022-10-01T08:48:39.971Z,2.85
2022-10-01T08:51:24.042Z,3.00
2022-10-01T08:54:07.394Z,2.90
2022-10-01T08:56:36.721Z,3.08
2022-10-01T08:59:12.935Z,3.47
2022-10-01T09:01:39.793Z,2.95
2022-10-01T09:04:06.943Z,3.22
2022-10-01T09:06:33.950Z,3.10
2022-10-01T09:09:33.101Z,3.33
2022-10-01T09:12:04.802Z,3.10
2022-10-01T09:14:36.885Z,4.03
2022-10-01T09:17:35.171Z,2.60
2022-10-01T09:20:27.018Z,3.20
2022-10-01T09:23:02.262Z,2.72
2022-10-01T09:25:29.799Z,2.80
2022-10-01T09:28:07.601Z,2.95
2022-10-01T09:30:35.418Z,2.80
2022-10-01T09:33:24.458Z,2.28
2022-10-01T09:36:04.950Z,2.53
2022-10-01T09:38:46.069Z,2.83
2022-10-01T09:41:14.588Z,2.70
2022-10-01T09:43:43.612Z,2.10
2022-10-01T09:46:15.046Z,2.40
2022-10-01T09:48:50.661Z,2.45
2022-10-01T09:51:40.216Z,1.95
2022-10-01T09:54:44.555Z,1.90
2022-10-01T09:57:15.257Z,1.88
2022-10-01T09:59:54.922Z,2.17
2022-10-01T10:02:32.288Z,2.05
2022-10-01T10:05:23.917Z,1.90
2022-10-01T10:07:57.234Z,1.95
2022-10-01T10:10:28.580Z,2.30
2022-10-01T10:12:58.949Z,2.30
2022-10-01T10:15:26.331Z,2.53
2022-10-01T10:17:54.408Z,2.72
2022-10-01T10:20:41.400Z,2.38
2022-10-01T10:23:13.790Z,1.70
2022-10-01T10:25:40.652Z,2.05
2022-10-01T10:28:20.622Z,1.45
2022-10-01T10:30:48.280Z,1.50
2022-10-01T10:33:15.082Z,1.63
2022-10-01T10:35:41.758Z,4.25
2022-10-01T10:38:18.343Z,2.70
2022-10-01T10:40:45.842Z,1.95
2022-10-01T10:43:25.580Z,2.30
2022-10-01T10:45:56.735Z,2.00
2022-10-01T10:48:31.613Z,2.60
2022-10-01T10:51:01.688Z,1.25
2022-10-01T10:53:33.394Z,1.17
2022-10-01T10:56:06.332Z,1.10
2022-10-01T10:58:40.250Z,1.63
2022-10-01T11:01:10.017Z,1.60
2022-10-01T11:03:41.518Z,1.33
2022-10-01T11:06:14.706Z,1.05
2022-10-01T11:08:42.852Z,1.00
2022-10-01T11:11:43.886Z,1.20
2022-10-01T11:14:35.221Z,1.13
2022-10-01T11:17:09.621Z,1.70
2022-10-01T11:19:49.192Z,1.17
2022-10-01T11:22:53.105Z,1.00
2022-10-01T11:25:33.497Z,0.90
2022-10-01T11:28:11.544Z,1.30
2022-10-01T11:30:38.180Z,0.60
2022-10-01T11:33:32.861Z,0.52
2022-10-01T11:36:02.982Z,0.50
2022-10-01T11:38:45.799Z,0.60
2022-10-01T11:41:22.142Z,0.57
2022-10-01T11:44:02.368Z,0.70
2022-10-01T11:47:00.371Z,1.77
2022-10-01T11:49:29.382Z,0.75
2022-10-01T11:52:23.598Z,0.70
2022-10-01T11:55:29.146Z,0.68
2022-10-01T11:58:39.358Z,0.57
2022-10-01T12:01:12.607Z,0.60
2022-10-01T12:03:51.071Z,0.80
2022-10-01T12:06:34.048Z,1.20
2022-10-01T12:09:15.918Z,0.60
2022-10-01T12:11:52.585Z,0.80
2022-10-01T12:14:33.753Z,0.80
2022-10-01T12:17:26.269Z,0.70
2022-10-01T12:19:56.970Z,0.80
2022-10-01T12:22:32.591Z,0.70
2022-10-01T12:24:59.521Z,0.73
2022-10-01T12:27:57.628Z,1.02
2022-10-01T12:30:30.793Z,0.82
2022-10-01T12:33:35.640Z,0.80
2022-10-01T12:36:25.949Z,0.80
2022-10-01T12:39:04.271Z,0.55
2022-10-01T12:41:41.045Z,0.98
2022-10-01T12:47:22.958Z,0.82
2022-10-01T12:50:31.824Z,0.73
2022-10-01T12:53:20.506Z,1.15
2022-10-01T12:56:13.681Z,1.20
2022-10-01T12:59:06.417Z,0.90
2022-10-01T13:01:59.287Z,1.00
2022-10-01T13:04:41.771Z,1.10
2022-10-01T13:07:24.614Z,1.10
2022-10-01T13:10:07.784Z,1.10
2022-10-01T13:12:58.485Z,1.38
2022-10-01T13:15:38.004Z,1.08
2022-10-01T13:18:10.433Z,1.17
2022-10-01T13:20:56.253Z,1.45
2022-10-01T13:23:33.683Z,1.02
2022-10-01T13:26:19.880Z,1.25
2022-10-01T13:28:56.297Z,1.30
2022-10-01T13:31:39.946Z,1.20
2022-10-01T13:34:43.085Z,1.30
2022-10-01T13:37:16.101Z,1.10
2022-10-01T13:39:43.805Z,1.00
2022-10-01T13:42:22.945Z,1.83
2022-10-01T13:45:20.945Z,1.33
2022-10-01T13:47:47.817Z,1.33
2022-10-01T13:50:23.887Z,1.40
2022-10-01T13:52:52.071Z,1.55
2022-10-01T13:55:30.551Z,1.27
2022-10-01T13:58:06.230Z,1.40
2022-10-01T14:00:33.445Z,1.35
2022-10-01T14:03:01.785Z,1.25
2022-10-01T14:05:42.609Z,1.45
2022-10-01T14:08:26.110Z,1.25
2022-10-01T14:11:23.067Z,1.50
2022-10-01T14:14:10.659Z,1.40
2022-10-01T14:16:44.003Z,1.27
2022-10-01T14:19:19.197Z,1.52
2022-10-01T14:22:12.447Z,1.63
2022-10-01T14:25:00.701Z,1.08
2022-10-01T14:27:59.088Z,1.40
2022-10-01T14:30:39.713Z,1.38
2022-10-01T14:33:51.129Z,1.30
2022-10-01T14:36:28.437Z,1.52
2022-10-01T14:39:11.047Z,1.60
2022-10-01T14:41:37.745Z,1.92
2022-10-01T14:44:23.366Z,1.65
2022-10-01T14:46:51.372Z,1.45
2022-10-01T14:49:27.234Z,1.63
2022-10-01T14:52:04.098Z,1.60
2022-10-01T14:57:03.436Z,1.70
2022-10-01T14:59:37.221Z,1.40
2022-10-01T15:05:32.450Z,1.55
2022-10-01T15:08:11.986Z,1.67
2022-10-01T15:10:41.479Z,1.90
2022-10-01T15:13:08.926Z,2.10
2022-10-01T15:15:41.582Z,1.60
2022-10-01T15:18:15.025Z,1.83
2022-10-01T15:21:00.241Z,1.75
2022-10-01T15:23:28.797Z,1.50
2022-10-01T15:25:57.881Z,1.85
2022-10-01T15:28:33.121Z,1.80
2022-10-01T15:31:03.239Z,1.90
2022-10-01T15:33:36.078Z,1.80
2022-10-01T15:36:05.832Z,1.60
2022-10-01T15:38:33.157Z,1.55
2022-10-01T15:41:26.601Z,1.55
2022-10-01T15:43:49.763Z,1.08
2022-10-01T15:46:19.859Z,2.72
2022-10-01T15:48:46.945Z,6.45
2022-10-01T15:51:18.131Z,2.13
2022-10-01T15:53:45.354Z,1.23
2022-10-01T15:56:17.325Z,1.40
2022-10-01T15:59:13.193Z,1.38
2022-10-01T16:01:40.842Z,1.25
2022-10-01T16:04:10.965Z,1.40
2022-10-01T16:06:43.774Z,1.55
2022-10-01T16:09:27.705Z,1.38
2022-10-01T16:11:57.662Z,0.90
2022-10-01T16:14:29.221Z,1.17
2022-10-01T16:17:17.609Z,1.17
2022-10-01T16:19:48.476Z,1.73
2022-10-01T16:22:25.714Z,1.00
2022-10-01T16:25:01.506Z,1.20
2022-10-01T16:27:30.195Z,1.58
2022-10-01T16:30:04.942Z,1.63
2022-10-01T16:32:32.338Z,1.20
2022-10-01T16:35:18.593Z,1.38
2022-10-01T16:37:48.209Z,1.20
2022-10-01T16:40:16.362Z,1.30
2022-10-01T16:42:44.668Z,1.42
2022-10-01T16:45:22.581Z,1.50
2022-10-01T16:47:49.674Z,1.48
2022-10-01T16:50:18.838Z,1.48
2022-10-01T16:52:45.756Z,1.35
2022-10-01T16:55:20.356Z,1.48
2022-10-01T16:57:47.169Z,1.33
2022-10-01T17:00:15.329Z,2.22
2022-10-01T17:02:42.362Z,1.50
2022-10-01T17:05:26.581Z,1.50
2022-10-01T17:07:54.126Z,1.60
2022-10-01T17:10:23.251Z,1.38
2022-10-01T17:12:53.846Z,1.48
2022-10-01T17:15:23.200Z,1.50
2022-10-01T17:17:49.863Z,1.60
2022-10-01T17:20:16.614Z,1.60
2022-10-01T17:22:43.521Z,1.90
2022-10-01T17:25:18.367Z,1.65
2022-10-01T17:27:45.902Z,1.90
2022-10-01T17:30:12.875Z,2.30
2022-10-01T17:32:40.257Z,2.58
2022-10-01T17:35:07.802Z,2.50
2022-10-01T17:37:34.711Z,1.80
2022-10-01T17:40:01.518Z,2.05
2022-10-01T17:42:28.201Z,2.13
2022-10-01T17:44:54.911Z,1.70
2022-10-01T17:47:25.002Z,1.88
2022-10-01T17:49:51.750Z,1.98
2022-10-01T17:52:18.681Z,2.10
2022-10-01T17:54:45.550Z,2.15
2022-10-01T17:57:12.201Z,2.08
2022-10-01T17:59:39.211Z,2.38
2022-10-01T18:02:18.834Z,2.92
2022-10-01T18:04:53.966Z,2.15
2022-10-01T18:07:20.617Z,2.47
2022-10-01T18:09:47.485Z,2.50
2022-10-01T18:12:14.719Z,1.80
2022-10-01T18:14:41.457Z,1.63
2022-10-01T18:17:08.139Z,2.35
2022-10-01T18:22:29.334Z,2.20
2022-10-01T18:24:56.299Z,2.53
2022-10-01T18:27:23.087Z,2.13
2022-10-01T18:29:49.868Z,2.40
2022-10-01T18:32:23.554Z,2.53
2022-10-01T18:34:59.071Z,2.85
2022-10-01T18:37:49.788Z,2.45
2022-10-01T18:40:21.066Z,2.40
2022-10-01T18:43:09.045Z,2.80
2022-10-01T18:46:07.479Z,2.35
2022-10-01T18:49:14.198Z,3.13
2022-10-01T18:51:52.933Z,2.90
2022-10-01T18:54:45.730Z,2.42
2022-10-01T18:57:47.163Z,2.95
2022-10-01T19:00:20.140Z,2.85
2022-10-01T19:03:24.609Z,2.58
2022-10-01T19:06:21.320Z,2.38
2022-10-01T19:09:23.055Z,2.28
2022-10-01T19:12:13.508Z,2.17
2022-10-01T19:15:10.814Z,2.40
2022-10-01T19:17:56.614Z,2.40
2022-10-01T19:20:29.247Z,2.40
2022-10-01T19:23:20.802Z,2.38
2022-10-01T19:25:57.198Z,2.20
2022-10-01T19:28:35.791Z,2.88
2022-10-01T19:31:29.829Z,2.03
2022-10-01T19:34:05.872Z,2.55
2022-10-01T19:36:37.867Z,2.73
2022-10-01T19:39:10.803Z,2.42
2022-10-01T19:41:48.768Z,2.47
2022-10-01T19:44:40.461Z,2.65
2022-10-01T19:47:40.184Z,1.90
2022-10-01T19:50:25.829Z,2.55
2022-10-01T19:52:57.261Z,2.22
2022-10-01T19:55:25.322Z,2.17
2022-10-01T19:57:52.854Z,2.83
2022-10-01T20:00:22.018Z,2.75
2022-10-01T20:03:17.041Z,2.40
2022-10-01T20:06:09.761Z,2.40
2022-10-01T20:09:02.890Z,2.72
2022-10-01T20:11:35.767Z,3.00
2022-10-01T20:15:00.682Z,3.15
2022-10-01T20:17:40.014Z,2.83
2022-10-01T20:20:16.138Z,2.65
2022-10-01T20:23:06.980Z,2.93
2022-10-01T20:25:48.688Z,2.95
2022-10-01T20:28:52.106Z,3.10
2022-10-01T20:31:22.981Z,2.83
2022-10-01T20:34:05.934Z,2.47
2022-10-01T20:36:46.194Z,2.60
2022-10-01T20:39:25.293Z,2.50
2022-10-01T20:41:54.167Z,2.45
2022-10-01T20:44:25.994Z,2.10
2022-10-01T20:46:59.486Z,2.13
2022-10-01T20:49:32.335Z,2.10
2022-10-01T20:52:22.388Z,3.17
2022-10-01T20:54:53.043Z,2.20
2022-10-01T20:57:32.119Z,2.35
2022-10-01T21:00:23.506Z,2.03
2022-10-01T21:03:11.272Z,2.10
2022-10-01T21:05:43.079Z,2.03
2022-10-01T21:08:28.629Z,1.90
2022-10-01T21:10:59.543Z,3.97
2022-10-01T21:13:40.933Z,3.03
2022-10-01T21:16:26.274Z,3.83
2022-10-01T21:19:38.221Z,2.38
2022-10-01T21:22:32.888Z,1.63
2022-10-01T21:25:16.973Z,2.10
2022-10-01T21:28:10.275Z,2.22
2022-10-01T21:31:08.502Z,2.30
2022-10-01T21:33:53.952Z,1.85
2022-10-01T21:36:34.341Z,2.28
2022-10-01T21:39:18.926Z,2.30
2022-10-01T21:42:01.972Z,2.17
2022-10-01T21:45:06.141Z,2.28
2022-10-01T21:48:12.359Z,2.22
2022-10-01T21:51:09.268Z,3.42
2022-10-01T21:53:50.785Z,2.50
2022-10-01T21:56:45.717Z,1.98
2022-10-01T21:59:31.581Z,2.17
2022-10-01T22:02:08.215Z,2.53
2022-10-01T22:04:40.358Z,2.47
2022-10-01T22:07:28.158Z,2.03
2022-10-01T22:10:08.291Z,2.30
2022-10-01T22:12:40.234Z,2.85
2022-10-01T22:15:29.645Z,2.05
2022-10-01T22:17:57.221Z,2.65
2022-10-01T22:20:30.983Z,2.80
2022-10-01T22:23:01.219Z,2.45
2022-10-01T22:25:30.243Z,2.40
2022-10-01T22:28:06.188Z,2.20
2022-10-01T22:30:37.320Z,1.93
2022-10-01T22:33:22.198Z,2.50
2022-10-01T22:36:03.713Z,2.97
2022-10-01T22:38:40.587Z,2.28
2022-10-01T22:41:17.658Z,3.28
2022-10-01T22:43:45.668Z,2.40
2022-10-01T22:46:40.693Z,2.28
2022-10-01T22:49:32.145Z,2.40
2022-10-01T22:52:27.313Z,2.50
2022-10-01T22:55:09.407Z,2.40
2022-10-01T22:58:00.696Z,2.83
2022-10-01T23:00:28.118Z,2.00
2022-10-01T23:03:02.731Z,2.60
2022-10-01T23:06:07.048Z,2.33
2022-10-01T23:08:54.713Z,2.08
2022-10-01T23:11:54.455Z,2.13
2022-10-01T23:14:53.530Z,2.67
2022-10-01T23:17:39.342Z,2.33
2022-10-01T23:20:29.601Z,2.60
2022-10-01T23:23:14.818Z,2.28
2022-10-01T23:26:06.098Z,2.33
2022-10-01T23:29:02.605Z,2.85
2022-10-01T23:31:53.561Z,2.33
2022-10-01T23:34:34.626Z,2.30
2022-10-01T23:37:21.539Z,2.50
2022-10-01T23:39:54.849Z,2.08
2022-10-01T23:42:55.054Z,2.28
2022-10-01T23:45:36.707Z,2.65
2022-10-01T23:48:29.323Z,2.42
2022-10-01T23:51:07.964Z,2.60
2022-10-01T23:53:43.978Z,2.25
2022-10-01T23:56:36.934Z,2.20
2022-10-01T23:59:09.228Z,2.60
